Time;durP1;ratioP1;P1;durP2;ratioP2;P2;SDS_P1;SDS_P2;PMS_P1;PMS_P2;Temp;Humidity;BMP_temperature;BMP_pressure;BME280_temperature;BME280_humidity;BME280_pressure;Samples;Min_cycle;Max_cycle;Signal;HPM_P1;HPM_P2
2023/10/23 00:01:40;;;;;;;5.72;4.47;;;;;;;8.79;100.00;101068.91;5006682;28;20506;-66
2023/10/23 00:04:06;;;;;;;6.90;4.93;;;;;;;8.75;100.00;101067.00;5007346;28;20061;-67
2023/10/23 00:06:32;;;;;;;6.18;4.90;;;;;;;8.70;100.00;101066.81;4993721;28;20037;-66
2023/10/23 00:08:58;;;;;;;7.15;4.63;;;;;;;8.68;100.00;101072.72;5007391;28;20033;-66
2023/10/23 00:11:28;;;;;;;10.15;4.80;;;;;;;8.61;100.00;101080.22;5007575;28;20458;-66
2023/10/23 00:13:53;;;;;;;5.57;4.68;;;;;;;8.60;100.00;101065.50;5007404;28;20105;-66
2023/10/23 00:16:19;;;;;;;4.45;4.00;;;;;;;8.59;100.00;101070.59;5013849;28;20079;-67
2023/10/23 00:18:45;;;;;;;4.65;4.10;;;;;;;8.56;100.00;101078.22;5001176;28;20030;-66
2023/10/23 00:21:10;;;;;;;4.28;3.88;;;;;;;8.51;100.00;101075.38;5007737;28;20025;-66
2023/10/23 00:23:36;;;;;;;4.97;4.50;;;;;;;8.47;100.00;101074.38;5007256;28;20018;-67
2023/10/23 00:26:01;;;;;;;5.85;4.15;;;;;;;8.46;100.00;101080.38;5008136;28;20084;-66
2023/10/23 00:28:27;;;;;;;7.40;4.25;;;;;;;8.43;100.00;101071.59;5013868;28;20473;-65
2023/10/23 00:30:52;;;;;;;5.82;4.22;;;;;;;8.41;100.00;101074.13;5007686;28;20132;-67
2023/10/23 00:33:18;;;;;;;7.88;4.25;;;;;;;8.38;100.00;101074.84;5002337;28;20110;-67
2023/10/23 00:35:43;;;;;;;5.70;4.15;;;;;;;8.36;100.00;101073.94;4996040;28;20034;-67
2023/10/23 00:38:08;;;;;;;4.90;4.38;;;;;;;8.34;100.00;101075.53;5014167;28;20025;-66
2023/10/23 00:40:34;;;;;;;6.03;4.70;;;;;;;8.33;100.00;101076.34;5025940;28;20029;-67
2023/10/23 00:43:17;;;;;;;4.95;4.03;;;;;;;8.31;100.00;101077.97;5006683;28;20089;-65
2023/10/23 00:45:50;;;;;;;5.22;4.03;;;;;;;8.28;100.00;101077.84;5006671;28;20018;-66
2023/10/23 00:48:19;;;;;;;7.47;4.40;;;;;;;8.27;100.00;101076.09;5007548;28;20382;-66
2023/10/23 00:50:44;;;;;;;5.20;4.43;;;;;;;8.26;100.00;101074.28;5006954;28;20091;-67
2023/10/23 00:53:10;;;;;;;4.38;3.70;;;;;;;8.25;100.00;101077.72;5007460;28;20021;-66
2023/10/23 00:55:36;;;;;;;6.35;4.10;;;;;;;8.22;100.00;101072.41;5007014;28;20044;-66
2023/10/23 00:58:01;;;;;;;5.63;4.18;;;;;;;8.21;100.00;101083.53;5007288;28;20030;-66
2023/10/23 01:00:28;;;;;;;7.25;4.57;;;;;;;8.22;100.00;101072.41;5018970;28;20030;-66
2023/10/23 01:02:53;;;;;;;5.80;4.85;;;;;;;8.22;100.00;101085.31;5015916;28;20033;-66
2023/10/23 01:05:18;;;;;;;5.15;4.65;;;;;;;8.23;100.00;101089.66;4992679;28;20014;-67
2023/10/23 01:07:44;;;;;;;8.32;4.78;;;;;;;8.23;100.00;101094.81;5002675;28;20415;-66
2023/10/23 01:10:09;;;;;;;7.38;4.93;;;;;;;8.24;100.00;101086.28;5008800;28;20117;-66
2023/10/23 01:12:35;;;;;;;8.73;5.25;;;;;;;8.26;100.00;101089.78;5013453;28;20499;-66
2023/10/23 01:15:00;;;;;;;5.47;4.97;;;;;;;8.26;100.00;101089.78;5007060;28;20463;-67
2023/10/23 01:17:26;;;;;;;6.25;4.85;;;;;;;8.28;100.00;101094.22;5022013;28;20026;-65
2023/10/23 01:19:51;;;;;;;9.18;5.78;;;;;;;8.32;100.00;101096.94;5011353;28;20105;-67
2023/10/23 01:22:17;;;;;;;10.13;5.88;;;;;;;8.30;100.00;101096.88;5007141;28;20026;-66
2023/10/23 01:24:47;;;;;;;7.20;6.50;;;;;;;8.32;100.00;101097.84;5015545;28;20441;-65
2023/10/23 01:27:12;;;;;;;6.67;6.07;;;;;;;8.33;100.00;101097.00;4999712;28;20026;-66
2023/10/23 01:29:37;;;;;;;10.18;6.47;;;;;;;8.35;100.00;101100.53;5016362;28;20277;-67
2023/10/23 01:32:03;;;;;;;13.13;7.10;;;;;;;8.35;100.00;101097.97;4998258;28;20034;-66
2023/10/23 01:34:28;;;;;;;11.50;7.00;;;;;;;8.34;100.00;101098.78;5015022;28;20540;-66
2023/10/23 01:36:54;;;;;;;11.93;7.85;;;;;;;8.34;100.00;101091.03;5022727;28;20029;-65
2023/10/23 01:39:19;;;;;;;9.07;6.70;;;;;;;8.35;100.00;101090.22;5009645;28;20018;-67
2023/10/23 01:41:44;;;;;;;11.57;6.85;;;;;;;8.34;100.00;101080.72;5006456;28;20464;-67
2023/10/23 01:44:10;;;;;;;10.38;6.60;;;;;;;8.34;100.00;101091.03;5007563;28;20033;-66
2023/10/23 01:46:35;;;;;;;8.82;6.45;;;;;;;8.33;100.00;101088.41;5008723;28;20422;-67
2023/10/23 01:49:00;;;;;;;10.13;6.63;;;;;;;8.32;100.00;101089.19;5008285;28;20026;-66
2023/10/23 01:51:26;;;;;;;7.28;6.38;;;;;;;8.27;100.00;101087.28;5009204;28;20029;-66
2023/10/23 01:53:51;;;;;;;7.38;6.13;;;;;;;8.26;100.00;101089.78;5008720;28;20466;-67
2023/10/23 01:56:17;;;;;;;9.20;6.13;;;;;;;8.26;100.00;101089.78;5009005;28;20046;-67
2023/10/23 01:58:42;;;;;;;7.57;6.22;;;;;;;8.23;100.00;101085.38;5008141;28;20421;-66
2023/10/23 02:01:24;;;;;;;7.75;5.85;;;;;;;8.22;100.00;101083.59;5008250;28;20072;-66
2023/10/23 02:03:50;;;;;;;7.40;6.32;;;;;;;8.21;100.00;101083.53;5008728;28;20107;-67
2023/10/23 02:06:16;;;;;;;9.13;5.95;;;;;;;8.19;100.00;101088.63;5010324;28;20084;-66
2023/10/23 02:08:41;;;;;;;9.90;5.88;;;;;;;8.17;100.00;101085.97;5011055;28;20418;-66
2023/10/23 02:11:08;;;;;;;9.65;6.03;;;;;;;8.13;100.00;101086.66;5006460;28;20470;-66
2023/10/23 02:13:33;;;;;;;7.60;5.25;;;;;;;8.11;100.00;101084.81;5009264;28;20034;-67
2023/10/23 02:15:59;;;;;;;7.95;5.90;;;;;;;8.10;100.00;101088.19;5009231;28;20111;-66
2023/10/23 02:18:24;;;;;;;11.80;5.95;;;;;;;8.09;100.00;101092.50;4999367;28;20121;-66
2023/10/23 02:20:50;;;;;;;7.75;5.72;;;;;;;8.08;100.00;101093.28;4990382;28;20430;-66
2023/10/23 02:23:15;;;;;;;7.78;6.35;;;;;;;8.07;100.00;101101.88;4990181;28;20023;-67
2023/10/23 02:25:41;;;;;;;8.55;5.18;;;;;;;8.06;100.00;101102.66;5003410;28;20038;-66
2023/10/23 02:28:06;;;;;;;9.95;6.55;;;;;;;8.06;100.00;101102.66;5011947;28;20033;-67
2023/10/23 02:30:31;;;;;;;7.80;6.43;;;;;;;8.05;100.00;101116.38;4993900;28;20466;-66
2023/10/23 02:32:56;;;;;;;10.45;7.38;;;;;;;8.01;100.00;101117.94;5000262;28;20018;-67
2023/10/23 02:35:22;;;;;;;8.73;6.57;;;;;;;8.00;100.00;101117.88;4993921;28;20022;-67
2023/10/23 02:37:49;;;;;;;12.10;6.95;;;;;;;7.96;100.00;101109.09;5006648;28;20079;-66
2023/10/23 02:40:15;;;;;;;12.65;7.10;;;;;;;7.96;100.00;101113.38;5009257;28;20045;-67
2023/10/23 02:42:40;;;;;;;13.18;6.13;;;;;;;7.95;100.00;101109.91;5020119;28;20050;-67
2023/10/23 02:45:06;;;;;;;8.27;6.35;;;;;;;7.94;100.00;101115.88;5009837;28;20401;-67
2023/10/23 02:47:32;;;;;;;8.10;7.00;;;;;;;7.95;100.00;101119.34;5019261;28;20428;-67
2023/10/23 02:49:57;;;;;;;13.43;8.57;;;;;;;7.94;100.00;101115.88;4997878;28;20057;-66
2023/10/23 02:52:22;;;;;;;11.60;7.40;;;;;;;7.93;100.00;101108.97;5015525;28;20344;-66
2023/10/23 02:54:50;;;;;;;8.70;7.03;;;;;;;7.92;100.00;101115.81;5000194;28;20033;-66
2023/10/23 02:57:15;;;;;;;9.95;7.75;;;;;;;7.88;100.00;101116.47;5007748;28;20101;-67
2023/10/23 02:59:46;;;;;;;8.73;6.20;;;;;;;7.83;100.00;101110.22;4999954;28;20040;-65
2023/10/23 03:02:12;;;;;;;8.57;5.82;;;;;;;7.75;100.00;101114.13;5005257;28;20019;-67
2023/10/23 03:04:37;;;;;;;9.27;5.55;;;;;;;7.71;100.00;101114.78;4992416;28;20072;-64
2023/10/23 03:07:02;;;;;;;9.13;7.28;;;;;;;7.69;100.00;101113.03;5015584;28;20022;-66
2023/10/23 03:09:28;;;;;;;8.55;7.55;;;;;;;7.65;100.00;101117.94;5018303;28;20029;-67
2023/10/23 03:11:53;;;;;;;10.10;7.88;;;;;;;7.63;100.00;101112.72;5011853;28;20108;-67
2023/10/23 03:14:18;;;;;;;10.23;7.35;;;;;;;7.59;100.00;101108.22;5011643;28;20379;-66
2023/10/23 03:16:43;;;;;;;8.20;7.40;;;;;;;7.53;100.00;101110.50;5027842;28;20522;-66
2023/10/23 03:19:09;;;;;;;7.70;6.97;;;;;;;7.52;100.00;101116.50;5010718;28;20026;-66
2023/10/23 03:21:34;;;;;;;8.13;7.05;;;;;;;7.50;100.00;101111.22;4999144;28;20109;-66
2023/10/23 03:23:59;;;;;;;11.05;7.00;;;;;;;7.45;100.00;101113.59;5001927;28;20018;-67
2023/10/23 03:26:25;;;;;;;8.63;6.20;;;;;;;7.42;100.00;101113.44;4998636;28;20033;-66
2023/10/23 03:28:50;;;;;;;7.22;6.13;;;;;;;7.40;100.00;101117.63;4997942;28;20104;-66
2023/10/23 03:31:15;;;;;;;8.27;6.05;;;;;;;7.35;100.00;101120.78;5008503;28;20475;-67
2023/10/23 03:33:41;;;;;;;10.38;5.57;;;;;;;7.33;100.00;101123.31;5014620;28;20046;-67
2023/10/23 03:36:06;;;;;;;9.13;5.50;;;;;;;7.31;100.00;101118.06;5002366;28;20078;-67
2023/10/23 03:38:32;;;;;;;8.10;5.38;;;;;;;7.28;100.00;101122.19;5027006;28;20474;-67
2023/10/23 03:40:58;;;;;;;8.90;5.07;;;;;;;7.25;100.00;101124.63;4993516;28;20011;-66
2023/10/23 03:43:24;;;;;;;5.68;4.72;;;;;;;7.20;100.00;101122.69;4999183;28;20378;-66
2023/10/23 03:45:50;;;;;;;8.48;5.28;;;;;;;7.19;100.00;101120.03;4991108;28;20072;-67
2023/10/23 03:48:15;;;;;;;4.97;4.32;;;;;;;7.17;100.00;101130.28;4998931;28;20021;-66
2023/10/23 03:50:40;;;;;;;5.93;4.75;;;;;;;7.13;100.00;101136.06;5007390;28;20026;-65
2023/10/23 03:53:05;;;;;;;6.18;5.05;;;;;;;7.13;100.00;101130.03;5008187;28;20032;-67
2023/10/23 03:55:35;;;;;;;7.05;5.05;;;;;;;7.10;100.00;101125.63;5007093;28;20493;-66
2023/10/23 03:58:01;;;;;;;6.00;4.43;;;;;;;7.08;100.00;101119.50;5017918;28;20044;-66
2023/10/23 04:00:26;;;;;;;5.75;4.45;;;;;;;7.05;100.00;101127.06;5000660;28;20022;-66
2023/10/23 04:02:52;;;;;;;5.95;4.20;;;;;;;7.00;100.00;101131.97;5016200;28;20065;-66
2023/10/23 04:05:17;;;;;;;6.82;4.22;;;;;;;6.94;100.00;101124.81;5007963;28;20029;-67
2023/10/23 04:07:42;;;;;;;7.35;4.90;;;;;;;6.94;100.00;101127.38;5016206;28;20036;-67
2023/10/23 04:10:08;;;;;;;8.43;5.03;;;;;;;6.89;100.00;101131.41;5009636;28;20025;-65
2023/10/23 04:12:34;;;;;;;6.30;4.43;;;;;;;6.87;100.00;101133.06;5021969;28;20036;-67
2023/10/23 04:14:59;;;;;;;6.55;4.30;;;;;;;6.85;100.00;101129.50;5027035;28;20171;-67
2023/10/23 04:17:24;;;;;;;7.38;4.72;;;;;;;6.82;100.00;101135.38;5013067;28;20105;-67
2023/10/23 04:19:49;;;;;;;6.20;4.57;;;;;;;6.78;100.00;101130.00;5016918;28;20089;-66
2023/10/23 04:22:15;;;;;;;5.72;4.85;;;;;;;6.72;100.00;101128.88;5006285;28;20320;-67
2023/10/23 04:24:40;;;;;;;8.23;5.25;;;;;;;6.71;100.00;101129.66;5008023;28;20033;-66
2023/10/23 04:27:05;;;;;;;10.43;4.60;;;;;;;6.68;100.00;101126.94;5008991;28;20265;-67
2023/10/23 04:29:30;;;;;;;5.60;4.18;;;;;;;6.66;100.00;101141.41;5007171;28;20460;-66
2023/10/23 04:31:56;;;;;;;8.65;5.07;;;;;;;6.61;100.00;101135.13;5006957;28;20014;-66
2023/10/23 04:34:21;;;;;;;5.68;4.65;;;;;;;6.60;100.00;101133.38;5007007;28;20014;-66
2023/10/23 04:36:46;;;;;;;5.55;4.82;;;;;;;6.59;100.00;101131.59;5018505;28;20021;-67
2023/10/23 04:39:11;;;;;;;6.75;4.88;;;;;;;6.57;100.00;101135.75;4998274;28;20039;-67
2023/10/23 04:41:37;;;;;;;5.47;4.28;;;;;;;6.56;100.00;101136.56;5016457;28;20099;-66
2023/10/23 04:44:03;;;;;;;7.72;4.63;;;;;;;6.53;100.00;101137.28;5022474;28;20118;-67
2023/10/23 04:46:28;;;;;;;7.32;4.35;;;;;;;6.50;100.00;101142.28;4998819;28;20103;-67
2023/10/23 04:48:54;;;;;;;5.50;4.78;;;;;;;6.48;100.00;101138.72;4999231;28;20100;-67
2023/10/23 04:51:19;;;;;;;8.07;5.07;;;;;;;6.49;100.00;101135.38;4990784;28;20489;-66
2023/10/23 04:53:44;;;;;;;6.00;5.00;;;;;;;6.49;100.00;101130.22;5003712;28;20037;-66
2023/10/23 04:56:10;;;;;;;8.23;5.22;;;;;;;6.48;100.00;101129.31;5016467;28;20453;-66
2023/10/23 04:58:35;;;;;;;8.18;5.13;;;;;;;6.47;100.00;101131.81;5025016;28;20032;-67
2023/10/23 05:01:00;;;;;;;6.70;5.05;;;;;;;6.46;100.00;101130.94;5015991;28;20049;-66
2023/10/23 05:03:25;;;;;;;9.00;4.85;;;;;;;6.43;100.00;101125.63;5015941;28;20030;-66
2023/10/23 05:05:51;;;;;;;5.38;4.55;;;;;;;6.42;100.00;101128.97;4994845;28;20041;-66
2023/10/23 05:08:16;;;;;;;6.22;4.38;;;;;;;6.40;100.00;101130.63;5015066;28;20276;-66
2023/10/23 05:10:42;;;;;;;6.28;4.13;;;;;;;6.38;100.00;101137.38;5007323;28;20044;-67
2023/10/23 05:13:07;;;;;;;5.72;4.25;;;;;;;6.34;100.00;101135.41;4987858;28;20454;-66
2023/10/23 05:15:32;;;;;;;7.82;4.53;;;;;;;6.34;100.00;101135.41;4987850;28;20409;-66
2023/10/23 05:17:57;;;;;;;5.38;4.30;;;;;;;6.32;100.00;101132.78;5000094;28;20032;-66
2023/10/23 05:20:23;;;;;;;7.13;4.20;;;;;;;6.29;100.00;101135.19;5003970;28;20548;-66
2023/10/23 05:22:48;;;;;;;5.15;3.72;;;;;;;6.26;100.00;101134.13;5011399;28;20065;-66
2023/10/23 05:25:13;;;;;;;5.10;4.15;;;;;;;6.23;100.00;101128.00;5008951;28;20037;-67
2023/10/23 05:27:38;;;;;;;5.50;4.30;;;;;;;6.21;100.00;101132.19;5008891;28;20028;-66
2023/10/23 05:30:06;;;;;;;5.65;4.55;;;;;;;6.18;100.00;101126.88;5008861;28;20510;-66
2023/10/23 05:32:35;;;;;;;6.00;4.55;;;;;;;6.13;100.00;101128.31;5009018;28;20600;-66
2023/10/23 05:35:03;;;;;;;4.82;4.18;;;;;;;6.11;100.00;101127.34;5010982;28;20021;-67
2023/10/23 05:37:29;;;;;;;6.50;4.80;;;;;;;6.10;100.00;101120.41;5023311;28;20033;-67
2023/10/23 05:39:55;;;;;;;4.38;3.97;;;;;;;6.10;100.00;101125.53;5018263;28;20083;-66
2023/10/23 05:42:20;;;;;;;5.72;4.55;;;;;;;6.07;100.00;101125.38;5011005;28;20088;-66
2023/10/23 05:44:45;;;;;;;6.10;4.65;;;;;;;6.05;100.00;101121.81;5017072;28;20069;-66
2023/10/23 05:47:10;;;;;;;5.07;4.35;;;;;;;6.04;100.00;101128.66;5012063;28;20026;-66
2023/10/23 05:49:36;;;;;;;7.20;4.00;;;;;;;6.01;100.00;101131.94;5016459;28;20033;-66
2023/10/23 05:52:01;;;;;;;5.18;3.63;;;;;;;5.98;100.00;101136.91;5006894;28;20710;-66
2023/10/23 05:54:26;;;;;;;4.93;4.43;;;;;;;5.95;100.00;101131.63;5013987;28;20016;-67
2023/10/23 05:56:52;;;;;;;6.47;3.88;;;;;;;5.97;100.00;101137.69;5003955;28;20549;-67
2023/10/23 05:59:17;;;;;;;4.82;3.88;;;;;;;5.98;100.00;101142.06;5006342;28;20124;-65
2023/10/23 06:01:42;;;;;;;5.30;3.65;;;;;;;5.96;100.00;101138.50;5006644;28;20509;-64
2023/10/23 06:04:07;;;;;;;4.70;3.55;;;;;;;5.95;100.00;101130.72;5007662;28;20042;-64
2023/10/23 06:06:33;;;;;;;6.40;3.10;;;;;;;5.92;100.00;101136.56;5002272;28;20029;-65
2023/10/23 06:08:59;;;;;;;3.53;3.22;;;;;;;5.90;100.00;101127.88;5004151;28;20037;-64
2023/10/23 06:11:24;;;;;;;8.02;5.78;;;;;;;5.87;100.00;101138.00;5002289;28;20113;-64
2023/10/23 06:13:50;;;;;;;6.70;4.10;;;;;;;5.86;100.00;101131.94;5006829;28;20474;-65
2023/10/23 06:16:15;;;;;;;5.10;3.63;;;;;;;5.85;100.00;101139.59;5007162;28;20017;-65
2023/10/23 06:18:40;;;;;;;3.92;2.85;;;;;;;5.85;100.00;101137.91;5012347;28;20397;-66
2023/10/23 06:21:06;;;;;;;5.03;3.60;;;;;;;5.84;100.00;101137.84;5013713;28;20045;-65
2023/10/23 06:23:34;;;;;;;3.63;3.28;;;;;;;5.82;100.00;101139.44;5012657;28;20607;-65
2023/10/23 06:25:59;;;;;;;5.18;3.60;;;;;;;5.80;100.00;101131.63;5009242;28;20037;-66
2023/10/23 06:28:25;;;;;;;5.13;3.03;;;;;;;5.77;100.00;101127.19;5012577;28;20025;-66
2023/10/23 06:30:51;;;;;;;4.28;3.20;;;;;;;5.76;100.00;101135.72;5008974;28;20036;-66
2023/10/23 06:33:16;;;;;;;5.78;3.33;;;;;;;5.74;100.00;101128.69;5008958;28;20475;-65
2023/10/23 06:35:41;;;;;;;7.78;3.83;;;;;;;5.74;100.00;101131.25;5013218;28;20033;-64
2023/10/23 06:38:07;;;;;;;4.22;3.70;;;;;;;5.77;100.00;101137.47;5019639;28;20057;-64
2023/10/23 06:40:32;;;;;;;6.53;3.80;;;;;;;5.80;100.00;101141.03;5008024;28;20030;-65
2023/10/23 06:42:57;;;;;;;3.90;3.42;;;;;;;5.82;100.00;101142.00;5008334;28;20074;-65
2023/10/23 06:45:22;;;;;;;4.57;3.47;;;;;;;5.87;100.00;101143.13;5008283;28;20532;-65
2023/10/23 06:47:49;;;;;;;6.25;4.10;;;;;;;5.90;100.00;101143.31;5006339;28;20037;-65
2023/10/23 06:50:15;;;;;;;5.18;4.47;;;;;;;5.92;100.00;101136.56;5010158;28;20026;-64
2023/10/23 06:52:42;;;;;;;5.68;5.07;;;;;;;5.94;100.00;101140.13;5005647;28;20026;-65
2023/10/23 06:55:07;;;;;;;9.73;4.70;;;;;;;5.96;100.00;101138.50;5005157;28;20034;-65
2023/10/23 06:57:32;;;;;;;6.20;4.35;;;;;;;5.98;100.00;101136.03;5008839;28;20379;-65
2023/10/23 06:59:58;;;;;;;7.00;4.60;;;;;;;6.02;100.00;101132.84;5003069;28;20053;-65
2023/10/23 07:02:23;;;;;;;7.10;4.53;;;;;;;6.07;100.00;101130.53;5004618;28;20433;-65
2023/10/23 07:04:48;;;;;;;5.72;5.00;;;;;;;6.10;100.00;101131.59;5005771;28;20037;-65
2023/10/23 07:07:14;;;;;;;5.97;4.97;;;;;;;6.14;100.00;101132.66;4998857;28;20026;-64
2023/10/23 07:09:39;;;;;;;6.00;4.88;;;;;;;6.17;100.00;101137.09;5004668;28;20049;-64
2023/10/23 07:12:05;;;;;;;6.78;4.68;;;;;;;6.21;100.00;101133.84;5007165;28;20033;-65
2023/10/23 07:14:30;;;;;;;5.10;4.60;;;;;;;6.23;100.00;101128.00;5008918;28;20026;-64
2023/10/23 07:16:55;;;;;;;6.88;4.95;;;;;;;6.27;100.00;101126.50;5009040;28;20117;-65
2023/10/23 07:19:20;;;;;;;7.07;5.05;;;;;;;6.32;100.00;101131.88;5008064;28;20056;-65
2023/10/23 07:21:46;;;;;;;9.43;5.00;;;;;;;6.36;100.00;101128.66;5020377;28;20369;-65
2023/10/23 07:24:11;;;;;;;6.93;5.97;;;;;;;6.40;100.00;101130.63;5027345;28;20089;-64
2023/10/23 07:26:37;;;;;;;7.13;5.72;;;;;;;6.46;100.00;101125.78;5027797;28;20469;-65
2023/10/23 07:29:02;;;;;;;10.23;6.45;;;;;;;6.52;100.00;101126.91;5016405;28;20482;-65
2023/10/23 07:31:27;;;;;;;9.50;5.85;;;;;;;6.57;100.00;101128.03;5001633;28;20037;-65
2023/10/23 07:33:53;;;;;;;7.30;6.60;;;;;;;6.61;100.00;101124.81;5000035;28;20026;-65
2023/10/23 07:36:18;;;;;;;8.77;6.88;;;;;;;6.65;100.00;101129.34;5016625;28;20501;-65
2023/10/23 07:38:44;;;;;;;7.07;6.40;;;;;;;6.69;100.00;101133.84;5012293;28;20489;-65
2023/10/23 07:41:11;;;;;;;7.63;6.82;;;;;;;6.73;100.00;101133.19;5024293;28;20196;-64
2023/10/23 07:43:36;;;;;;;8.48;7.68;;;;;;;6.79;100.00;101134.31;5026493;28;20112;-65
2023/10/23 07:46:10;;;;;;;10.50;8.63;;;;;;;6.87;100.00;101138.22;5026324;28;20502;-65
2023/10/23 07:48:36;;;;;;;10.07;7.60;;;;;;;6.96;100.00;101142.94;5027128;28;20466;-65
2023/10/23 07:51:03;;;;;;;8.98;7.80;;;;;;;7.03;100.00;101139.00;5019554;28;20022;-65
2023/10/23 07:53:29;;;;;;;10.15;7.30;;;;;;;7.11;100.00;101147.09;5019379;28;20041;-65
2023/10/23 07:55:54;;;;;;;10.60;9.35;;;;;;;7.22;100.00;101145.97;5014116;28;20037;-64
2023/10/23 07:58:20;;;;;;;12.63;8.40;;;;;;;7.29;100.00;101144.56;5013316;28;20168;-65
2023/10/23 08:00:45;;;;;;;9.77;8.23;;;;;;;7.36;100.00;101138.91;5007842;28;20042;-64
2023/10/23 08:03:10;;;;;;;12.82;8.10;;;;;;;7.45;100.00;101139.38;4993968;28;20034;-65
2023/10/23 08:05:36;;;;;;;11.77;8.80;;;;;;;7.55;100.00;101130.41;5013863;28;20080;-65
2023/10/23 08:08:03;;;;;;;11.73;8.93;;;;;;;7.71;100.00;101135.44;5001255;28;20440;-65
2023/10/23 08:10:28;;;;;;;12.73;9.32;;;;;;;7.88;100.00;101129.38;5009946;28;20033;-65
2023/10/23 08:12:54;;;;;;;12.05;9.23;;;;;;;8.08;100.00;101137.19;5017063;28;20079;-65
2023/10/23 08:15:19;;;;;;;12.48;8.68;;;;;;;8.23;100.00;101120.63;5012961;28;20358;-65
2023/10/23 08:17:44;;;;;;;10.48;7.95;;;;;;;8.32;100.00;101121.06;5012237;28;20042;-65
2023/10/23 08:20:10;;;;;;;10.90;7.95;;;;;;;8.40;100.00;101124.88;5013261;28;20026;-65
2023/10/23 08:22:36;;;;;;;9.05;7.40;;;;;;;8.47;100.00;101120.00;5012742;28;20088;-65
2023/10/23 08:25:01;;;;;;;11.45;7.82;;;;;;;8.55;100.00;101122.91;5014447;28;20438;-65
2023/10/23 08:27:26;;;;;;;11.45;8.38;;;;;;;8.61;100.00;101118.97;5004950;28;20034;-65
2023/10/23 08:29:51;;;;;;;11.68;8.07;;;;;;;8.63;100.00;101119.88;5022744;28;20029;-64
2023/10/23 08:32:17;;;;;;;12.60;7.57;;;;;;;8.70;100.00;101133.09;5018330;28;20097;-65
2023/10/23 08:34:42;;;;;;;13.60;9.05;;;;;;;8.77;100.00;101124.78;5001824;28;20027;-65
2023/10/23 08:37:08;;;;;;;10.82;6.85;;;;;;;8.86;100.00;101132.06;5004707;28;20042;-65
2023/10/23 08:39:33;;;;;;;14.25;7.75;;;;;;;8.91;100.00;101138.31;5005663;28;20044;-65
2023/10/23 08:42:00;;;;;;;8.82;7.63;;;;;;;9.00;100.00;101132.66;5007312;28;20058;-65
2023/10/23 08:44:26;;;;;;;11.38;7.20;;;;;;;9.18;100.00;101139.44;5008217;28;20379;-65
2023/10/23 08:46:52;;;;;;;11.95;7.13;;;;;;;9.34;100.00;101134.09;5021976;28;20071;-65
2023/10/23 08:49:17;;;;;;;10.73;7.78;;;;;;;9.42;100.00;101137.00;5007037;28;20038;-64
2023/10/23 08:51:50;;;;;;;9.60;6.32;;;;;;;9.57;100.00;101141.91;5011368;28;20025;-65
2023/10/23 08:54:20;;;;;;;9.95;5.70;;;;;;;9.72;100.00;101135.59;5009030;28;20256;-65
2023/10/23 08:56:53;;;;;;;10.57;6.35;;;;;;;9.69;100.00;101136.38;5008296;28;20038;-65
2023/10/23 08:59:18;;;;;;;10.23;6.15;;;;;;;9.77;100.00;101133.22;5022638;28;20029;-65
2023/10/23 09:01:44;;;;;;;12.48;5.72;;;;;;;9.82;100.00;101129.97;5014784;28;20204;-65
2023/10/23 09:04:10;;;;;;;9.90;5.45;;;;;;;9.89;100.00;101136.31;5021832;28;20033;-65
2023/10/23 09:06:36;;;;;;;13.48;6.25;;;;;;;9.94;100.00;101121.81;5023615;28;20025;-65
2023/10/23 09:09:03;;;;;;;8.43;5.20;;;;;;;10.02;100.00;101132.47;5011087;28;20326;-65
2023/10/23 09:11:43;;;;;;;8.98;5.40;;;;;;;10.08;100.00;101130.13;5002549;28;20033;-65
2023/10/23 09:14:09;;;;;;;8.80;5.55;;;;;;;10.12;100.00;101117.28;5028196;28;20025;-65
2023/10/23 09:16:36;;;;;;;9.43;5.63;;;;;;;10.14;100.00;101123.41;5028620;28;20037;-65
2023/10/23 09:19:02;;;;;;;12.40;6.20;;;;;;;10.14;100.00;101123.41;5025871;28;20036;-65
2023/10/23 09:21:28;;;;;;;13.05;5.45;;;;;;;10.20;100.00;101114.16;5025775;28;20374;-64
2023/10/23 09:23:55;;;;;;;11.65;5.40;;;;;;;10.23;100.00;101118.59;5016585;28;20021;-65
2023/10/23 09:26:22;;;;;;;12.95;5.90;;;;;;;10.23;100.00;101113.41;5015855;28;20497;-65
2023/10/23 09:28:49;;;;;;;8.15;4.95;;;;;;;10.29;100.00;101103.25;5006902;28;20499;-65
2023/10/23 09:31:16;;;;;;;10.43;5.47;;;;;;;10.35;100.00;101099.13;5004917;28;20022;-65
2023/10/23 09:33:42;;;;;;;8.52;5.85;;;;;;;10.40;100.00;101102.78;5009120;28;20022;-65
2023/10/23 09:36:09;;;;;;;9.73;6.07;;;;;;;10.46;100.00;101100.44;5011716;28;20136;-65
2023/10/23 09:38:34;;;;;;;12.80;5.47;;;;;;;10.51;100.00;101098.03;5017810;28;20105;-64
2023/10/23 09:41:00;;;;;;;15.43;6.50;;;;;;;10.53;100.00;101092.09;5011820;28;20206;-65
2023/10/23 09:43:26;;;;;;;11.02;6.00;;;;;;;10.57;100.00;101093.06;5012274;28;20101;-65
2023/10/23 09:45:52;;;;;;;12.65;7.00;;;;;;;10.61;100.00;101091.47;5018126;28;20072;-65
2023/10/23 09:48:18;;;;;;;9.43;5.97;;;;;;;10.62;100.00;101095.81;5012963;28;20512;-65
2023/10/23 09:50:48;;;;;;;11.60;6.28;;;;;;;10.62;100.00;101086.34;5012380;28;20029;-65
2023/10/23 09:53:15;;;;;;;14.15;6.80;;;;;;;10.65;100.00;101085.59;5018973;28;20539;-65
2023/10/23 09:55:44;;;;;;;12.63;7.07;;;;;;;10.66;100.00;101088.22;5016288;28;20481;-66
2023/10/23 09:58:14;;;;;;;14.98;6.72;;;;;;;10.70;100.00;101089.22;5009963;28;20433;-65
2023/10/23 10:00:44;;;;;;;10.23;6.80;;;;;;;10.73;100.00;101091.03;5019507;28;20025;-65
2023/10/23 10:03:12;;;;;;;13.30;6.35;;;;;;;10.71;100.00;101090.97;5019544;28;20038;-65
2023/10/23 10:05:46;;;;;;;11.45;6.85;;;;;;;10.73;100.00;101086.72;5024380;28;20013;-65
2023/10/23 10:08:14;;;;;;;10.35;6.45;;;;;;;10.80;100.00;101085.22;5026407;28;20022;-65
2023/10/23 10:10:40;;;;;;;8.27;6.28;;;;;;;10.87;100.00;101086.31;5016876;28;20144;-65
2023/10/23 10:13:05;;;;;;;12.05;6.65;;;;;;;10.91;100.00;101083.91;5027178;28;20140;-64
2023/10/23 10:15:31;;;;;;;10.60;6.30;;;;;;;10.97;100.00;101083.25;5016625;28;20382;-65
2023/10/23 10:17:57;;;;;;;10.75;6.20;;;;;;;11.01;100.00;101079.91;5027808;28;20075;-65
2023/10/23 10:20:23;;;;;;;10.55;5.57;;;;;;;11.03;100.00;101080.84;5019855;28;20021;-65
2023/10/23 10:23:03;;;;;;;7.85;4.50;;;;;;;11.01;100.00;101079.03;5013369;28;20474;-65
2023/10/23 10:25:30;;;;;;;11.10;4.80;;;;;;;11.07;100.00;101075.75;5004569;28;20125;-66
2023/10/23 10:27:57;;;;;;;8.98;4.43;;;;;;;11.08;100.00;101070.59;5015546;28;20025;-66
2023/10/23 10:30:43;;;;;;;10.82;4.70;;;;;;;11.13;100.00;101069.09;5006570;28;20147;-66
2023/10/23 10:33:10;;;;;;;11.75;4.63;;;;;;;11.16;100.00;101064.00;5018826;28;20378;-66
2023/10/23 10:35:35;;;;;;;8.68;4.80;;;;;;;11.20;100.00;101056.31;5012323;28;20026;-64
2023/10/23 10:38:00;;;;;;;7.47;4.97;;;;;;;11.20;100.00;101059.78;5020834;28;20028;-65
2023/10/23 10:40:26;;;;;;;9.48;4.45;;;;;;;11.26;100.00;101054.78;5008165;28;20083;-65
2023/10/23 10:42:54;;;;;;;8.70;4.93;;;;;;;11.32;100.00;101046.31;5002030;28;20049;-65
2023/10/23 10:45:20;;;;;;;10.40;5.10;;;;;;;11.38;100.00;101053.44;5013280;28;20033;-66
2023/10/23 10:47:53;;;;;;;12.02;4.93;;;;;;;11.38;100.00;101048.25;5005650;28;20145;-65
2023/10/23 10:50:34;;;;;;;10.05;5.35;;;;;;;11.42;100.00;101050.09;5006609;28;20217;-66
2023/10/23 10:53:02;;;;;;;13.15;4.95;;;;;;;11.47;100.00;101037.28;4997425;28;20034;-65
2023/10/23 10:55:27;;;;;;;10.32;4.47;;;;;;;11.49;100.00;101033.91;5007206;28;20026;-65
2023/10/23 10:57:53;;;;;;;13.55;5.10;;;;;;;11.53;100.00;101025.34;4998309;28;20037;-66
2023/10/23 11:00:18;;;;;;;10.43;4.57;;;;;;;11.58;100.00;101022.94;5003716;28;20445;-66
2023/10/23 11:02:43;;;;;;;9.20;4.40;;;;;;;11.63;100.00;101017.88;5010527;28;20030;-66
2023/10/23 11:05:11;;;;;;;8.38;3.92;;;;;;;11.64;100.00;101019.63;5012935;28;20048;-66
2023/10/23 11:07:37;;;;;;;10.50;4.10;;;;;;;11.69;100.00;101010.28;5003522;28;20131;-66
2023/10/23 11:10:04;;;;;;;10.98;4.55;;;;;;;11.69;100.00;101006.78;5017082;28;20014;-67
2023/10/23 11:12:30;;;;;;;10.23;4.97;;;;;;;11.71;100.00;100998.19;5002501;28;20101;-65
2023/10/23 11:14:55;;;;;;;8.82;3.58;;;;;;;11.75;100.00;100997.47;5009107;28;20446;-66
2023/10/23 11:17:20;;;;;;;9.02;4.38;;;;;;;11.74;100.00;100990.53;5022721;28;20025;-66